Time;durP1;ratioP1;P1;durP2;ratioP2;P2;SDS_P1;SDS_P2;PMS_P1;PMS_P2;Temp;Humidity;BMP_temperature;BMP_pressure;BME280_temperature;BME280_humidity;BME280_pressure;Samples;Min_cycle;Max_cycle;Signal;HPM_P1;HPM_P2
2023/09/15 00:01:16;;;;;;;0.50;0.50;;;;;;;;;;4900267;29;20497;-61
2023/09/15 00:03:41;;;;;;;0.50;0.50;;;;;;;;;;4899736;29;20472;-60
2023/09/15 00:06:07;;;;;;;0.40;0.40;;;;;;;;;;4898563;29;20036;-60
2023/09/15 00:08:33;;;;;;;0.43;0.43;;;;;;;;;;4899677;29;20079;-60
2023/09/15 00:10:59;;;;;;;0.50;0.50;;;;;;;;;;4899646;29;20487;-63
2023/09/15 00:13:24;;;;;;;0.40;0.40;;;;;;;;;;4896268;29;20099;-62
2023/09/15 00:15:51;;;;;;;0.40;0.40;;;;;;;;;;4898653;29;20539;-63
2023/09/15 00:18:18;;;;;;;0.50;0.50;;;;;;;;;;4897521;29;20060;-64
2023/09/15 00:20:44;;;;;;;0.50;0.50;;;;;;;;;;4895543;29;20402;-62
2023/09/15 00:23:10;;;;;;;0.40;0.40;;;;;;;;;;4887902;29;20468;-62
2023/09/15 00:25:35;;;;;;;0.43;0.43;;;;;;;;;;4898761;29;20168;-61
2023/09/15 00:28:02;;;;;;;0.40;0.40;;;;;;;;;;4897459;29;20047;-61
2023/09/15 00:30:27;;;;;;;0.50;0.50;;;;;;;;;;4900494;29;20036;-62
2023/09/15 00:32:53;;;;;;;0.50;0.50;;;;;;;;;;4899275;29;20029;-61
2023/09/15 00:35:20;;;;;;;0.40;0.40;;;;;;;;;;4926425;28;20099;-61
2023/09/15 00:37:46;;;;;;;0.50;0.50;;;;;;;;;;4909368;29;20043;-60
2023/09/15 00:40:12;;;;;;;0.40;0.40;;;;;;;;;;4896181;29;20147;-62
2023/09/15 00:42:38;;;;;;;0.50;0.50;;;;;;;;;;4901020;29;20776;-61
2023/09/15 00:45:06;;;;;;;0.50;0.50;;;;;;;;;;4899773;29;20064;-63
2023/09/15 00:47:33;;;;;;;0.50;0.50;;;;;;;;;;4896666;29;20040;-61
2023/09/15 00:49:59;;;;;;;0.50;0.50;;;;;;;;;;4899243;29;20033;-61
2023/09/15 00:52:27;;;;;;;0.50;0.50;;;;;;;;;;4897478;29;20062;-60
2023/09/15 00:54:53;;;;;;;0.40;0.40;;;;;;;;;;4900749;29;20191;-61
2023/09/15 00:57:19;;;;;;;0.47;0.47;;;;;;;;;;4897862;29;20040;-61
2023/09/15 00:59:44;;;;;;;0.50;0.50;;;;;;;;;;4895617;29;20089;-61
2023/09/15 01:02:09;;;;;;;0.45;0.45;;;;;;;;;;4900535;29;20039;-62
2023/09/15 01:04:35;;;;;;;0.50;0.50;;;;;;;;;;4973714;23;20066;-60
2023/09/15 01:07:05;;;;;;;0.40;0.40;;;;;;;;;;4947939;28;20031;-63
2023/09/15 01:09:31;;;;;;;0.40;0.40;;;;;;;;;;4961441;28;21094;-66
2023/09/15 01:11:56;;;;;;;0.50;0.50;;;;;;;;;;4959700;28;20550;-61
2023/09/15 01:14:21;;;;;;;0.50;0.50;;;;;;;;;;4948517;28;20117;-62
2023/09/15 01:16:58;;;;;;;0.50;0.50;;;;;;;;;;4978983;28;20040;-61
2023/09/15 01:19:42;;;;;;;0.50;0.50;;;;;;;;;;4947680;28;20094;-63
2023/09/15 01:22:08;;;;;;;0.50;0.50;;;;;;;;;;4976277;28;20094;-62
2023/09/15 01:24:52;;;;;;;0.40;0.40;;;;;;;;;;4946987;28;20429;-62
2023/09/15 01:27:17;;;;;;;0.40;0.40;;;;;;;;;;4948699;28;20043;-62
2023/09/15 01:29:51;;;;;;;0.47;0.47;;;;;;;;;;4950322;28;20062;-61
2023/09/15 01:32:18;;;;;;;0.50;0.50;;;;;;;;;;4966458;28;20468;-61
2023/09/15 01:34:48;;;;;;;0.43;0.43;;;;;;;;;;4948437;28;21040;-61
2023/09/15 01:37:14;;;;;;;0.40;0.40;;;;;;;;;;4950242;28;20059;-61
2023/09/15 01:39:41;;;;;;;0.50;0.50;;;;;;;;;;4953070;28;20857;-61
2023/09/15 01:42:07;;;;;;;0.43;0.43;;;;;;;;;;4939273;28;20039;-61
2023/09/15 01:44:32;;;;;;;0.40;0.40;;;;;;;;;;4954994;28;20039;-60
2023/09/15 01:46:59;;;;;;;0.60;0.60;;;;;;;;;;4940289;28;20086;-60
2023/09/15 01:49:25;;;;;;;0.55;0.55;;;;;;;;;;4952003;28;20048;-61
2023/09/15 01:51:50;;;;;;;0.50;0.50;;;;;;;;;;4953450;28;20057;-62
2023/09/15 01:54:16;;;;;;;0.40;0.40;;;;;;;;;;4954796;28;20034;-63
2023/09/15 01:56:42;;;;;;;0.50;0.50;;;;;;;;;;4938804;28;20031;-59
2023/09/15 01:59:08;;;;;;;0.50;0.50;;;;;;;;;;4969129;28;20039;-61
2023/09/15 02:01:33;;;;;;;0.50;0.50;;;;;;;;;;4938439;28;20118;-62
2023/09/15 02:03:58;;;;;;;0.47;0.47;;;;;;;;;;4938572;28;20035;-62
2023/09/15 02:06:24;;;;;;;0.50;0.50;;;;;;;;;;4939427;28;20055;-61
2023/09/15 02:08:49;;;;;;;0.50;0.50;;;;;;;;;;4940701;28;20692;-61
2023/09/15 02:11:14;;;;;;;0.40;0.40;;;;;;;;;;4952139;28;20024;-60
2023/09/15 02:13:40;;;;;;;0.50;0.50;;;;;;;;;;4954291;28;20046;-63
2023/09/15 02:16:05;;;;;;;0.50;0.50;;;;;;;;;;4939217;28;20028;-59
2023/09/15 02:18:31;;;;;;;0.45;0.45;;;;;;;;;;4938309;28;20038;-61
2023/09/15 02:20:56;;;;;;;0.50;0.50;;;;;;;;;;4969395;28;20175;-61
2023/09/15 02:23:22;;;;;;;0.50;0.50;;;;;;;;;;4927763;28;20055;-63
2023/09/15 02:25:48;;;;;;;0.50;0.50;;;;;;;;;;4953710;28;20067;-59
2023/09/15 02:28:13;;;;;;;0.50;0.50;;;;;;;;;;4954664;28;20139;-59
2023/09/15 02:30:39;;;;;;;0.50;0.50;;;;;;;;;;4940948;28;20114;-62
2023/09/15 02:33:04;;;;;;;0.50;0.50;;;;;;;;;;4936734;28;20119;-63
2023/09/15 02:35:29;;;;;;;0.50;0.50;;;;;;;;;;4936601;28;20028;-60
2023/09/15 02:37:55;;;;;;;0.50;0.50;;;;;;;;;;4953307;28;20129;-61
2023/09/15 02:40:21;;;;;;;0.50;0.50;;;;;;;;;;4934024;28;20114;-62
2023/09/15 02:42:47;;;;;;;0.60;0.60;;;;;;;;;;4935524;28;20738;-61
2023/09/15 02:45:12;;;;;;;0.50;0.50;;;;;;;;;;4951068;28;20091;-61
2023/09/15 02:47:37;;;;;;;0.50;0.50;;;;;;;;;;4970714;28;20586;-61
2023/09/15 02:50:03;;;;;;;0.50;0.50;;;;;;;;;;4937496;28;20066;-62
2023/09/15 02:52:31;;;;;;;0.43;0.43;;;;;;;;;;4937507;28;20047;-60
2023/09/15 02:54:56;;;;;;;0.60;0.60;;;;;;;;;;4954188;28;20035;-61
2023/09/15 02:57:21;;;;;;;0.50;0.50;;;;;;;;;;4935848;28;20553;-60
2023/09/15 02:59:47;;;;;;;0.50;0.50;;;;;;;;;;4953946;28;20458;-60
2023/09/15 03:02:13;;;;;;;0.50;0.50;;;;;;;;;;4937152;28;20479;-64
2023/09/15 03:04:40;;;;;;;0.50;0.50;;;;;;;;;;4954336;28;20057;-64
2023/09/15 03:07:06;;;;;;;0.50;0.50;;;;;;;;;;4936376;28;20043;-63
2023/09/15 03:09:35;;;;;;;0.50;0.50;;;;;;;;;;4951859;28;20131;-61
2023/09/15 03:12:00;;;;;;;0.50;0.50;;;;;;;;;;4940767;28;20126;-60
2023/09/15 03:14:25;;;;;;;0.52;0.52;;;;;;;;;;4938697;28;20506;-61
2023/09/15 03:16:51;;;;;;;0.50;0.50;;;;;;;;;;4955214;28;20118;-62
2023/09/15 03:19:17;;;;;;;0.60;0.60;;;;;;;;;;4936839;28;20027;-61
2023/09/15 03:21:43;;;;;;;0.50;0.50;;;;;;;;;;4966627;28;20036;-60
2023/09/15 03:24:08;;;;;;;0.50;0.50;;;;;;;;;;4936846;28;20032;-62
2023/09/15 03:26:35;;;;;;;0.52;0.52;;;;;;;;;;4951473;28;20035;-61
2023/09/15 03:29:01;;;;;;;0.50;0.50;;;;;;;;;;4953815;28;20105;-61
2023/09/15 03:31:26;;;;;;;0.50;0.50;;;;;;;;;;4938113;28;20092;-62
2023/09/15 03:33:52;;;;;;;0.50;0.50;;;;;;;;;;4938063;28;20778;-62
2023/09/15 03:36:17;;;;;;;0.60;0.60;;;;;;;;;;4935569;28;20493;-61
2023/09/15 03:38:44;;;;;;;0.60;0.60;;;;;;;;;;4935097;28;20067;-60
2023/09/15 03:41:09;;;;;;;0.60;0.60;;;;;;;;;;4967897;28;20142;-60
2023/09/15 03:43:35;;;;;;;0.60;0.60;;;;;;;;;;4952317;28;20386;-61
2023/09/15 03:46:00;;;;;;;0.50;0.50;;;;;;;;;;4950604;28;20067;-61
2023/09/15 03:48:25;;;;;;;0.50;0.50;;;;;;;;;;4934755;28;20153;-61
2023/09/15 03:50:52;;;;;;;0.50;0.50;;;;;;;;;;4951471;28;20106;-62
2023/09/15 03:53:17;;;;;;;0.50;0.50;;;;;;;;;;4941770;28;20037;-62
2023/09/15 03:55:43;;;;;;;0.50;0.50;;;;;;;;;;4938994;28;20036;-63
2023/09/15 03:58:09;;;;;;;0.50;0.50;;;;;;;;;;4940408;28;20035;-61
2023/09/15 04:00:34;;;;;;;0.50;0.50;;;;;;;;;;4954541;28;20039;-62
2023/09/15 04:03:00;;;;;;;0.50;0.50;;;;;;;;;;4937293;28;20042;-61
2023/09/15 04:05:26;;;;;;;0.50;0.50;;;;;;;;;;4926789;29;20539;-62
2023/09/15 04:07:51;;;;;;;0.50;0.50;;;;;;;;;;4953497;28;20470;-65
2023/09/15 04:10:17;;;;;;;0.50;0.50;;;;;;;;;;4934647;28;20085;-60
2023/09/15 04:12:42;;;;;;;0.47;0.47;;;;;;;;;;4967783;28;20046;-60
2023/09/15 04:15:09;;;;;;;0.50;0.50;;;;;;;;;;4950634;28;20031;-61
2023/09/15 04:17:34;;;;;;;0.60;0.60;;;;;;;;;;4950515;28;20448;-61
2023/09/15 04:20:00;;;;;;;0.50;0.50;;;;;;;;;;4939518;28;20039;-61
2023/09/15 04:22:28;;;;;;;0.60;0.60;;;;;;;;;;4951477;28;20368;-63
2023/09/15 04:24:54;;;;;;;0.50;0.50;;;;;;;;;;4937236;28;20104;-63
2023/09/15 04:27:19;;;;;;;0.40;0.40;;;;;;;;;;4969256;28;20047;-59
2023/09/15 04:29:55;;;;;;;0.50;0.50;;;;;;;;;;4927450;29;21001;-60
2023/09/15 04:32:24;;;;;;;0.50;0.50;;;;;;;;;;4932351;28;20035;-61
2023/09/15 04:34:49;;;;;;;0.50;0.50;;;;;;;;;;4952940;28;20045;-65
2023/09/15 04:37:15;;;;;;;0.60;0.60;;;;;;;;;;4937287;28;20085;-61
2023/09/15 04:39:41;;;;;;;0.57;0.57;;;;;;;;;;4952883;28;20031;-65
2023/09/15 04:42:06;;;;;;;0.50;0.50;;;;;;;;;;4937565;28;20137;-61
2023/09/15 04:44:32;;;;;;;0.50;0.50;;;;;;;;;;4928622;28;20485;-61
2023/09/15 04:46:57;;;;;;;0.52;0.52;;;;;;;;;;4951284;28;20032;-62
2023/09/15 04:49:23;;;;;;;0.60;0.60;;;;;;;;;;4935428;28;20095;-62
2023/09/15 04:51:48;;;;;;;0.50;0.50;;;;;;;;;;4952664;28;20065;-64
2023/09/15 04:54:14;;;;;;;0.60;0.60;;;;;;;;;;4929527;28;20725;-60
2023/09/15 04:56:40;;;;;;;0.60;0.60;;;;;;;;;;4936442;28;20036;-61
2023/09/15 04:59:15;;;;;;;0.60;0.60;;;;;;;;;;4951906;28;20130;-64
2023/09/15 05:01:45;;;;;;;0.50;0.50;;;;;;;;;;4954908;28;20593;-61
2023/09/15 05:04:10;;;;;;;0.60;0.60;;;;;;;;;;4940036;28;20071;-63
2023/09/15 05:06:36;;;;;;;0.60;0.60;;;;;;;;;;4956393;28;20043;-63
2023/09/15 05:09:05;;;;;;;0.60;0.60;;;;;;;;;;4940641;28;20035;-62
2023/09/15 05:11:30;;;;;;;0.50;0.50;;;;;;;;;;4956821;28;20123;-60
2023/09/15 05:13:56;;;;;;;0.50;0.50;;;;;;;;;;4940409;28;20201;-63
2023/09/15 05:16:22;;;;;;;0.50;0.50;;;;;;;;;;4945889;28;20035;-60
2023/09/15 05:18:49;;;;;;;0.60;0.60;;;;;;;;;;4938742;29;20131;-62
2023/09/15 05:21:14;;;;;;;0.60;0.60;;;;;;;;;;4940918;28;20031;-61
2023/09/15 05:23:41;;;;;;;0.60;0.60;;;;;;;;;;4939341;28;20055;-63
2023/09/15 05:26:07;;;;;;;0.60;0.60;;;;;;;;;;4939107;28;20136;-60
2023/09/15 05:28:33;;;;;;;0.50;0.50;;;;;;;;;;4937170;28;20048;-61
2023/09/15 05:30:59;;;;;;;0.60;0.60;;;;;;;;;;4938896;28;20038;-63
2023/09/15 05:33:28;;;;;;;0.60;0.60;;;;;;;;;;4938859;28;20032;-64
2023/09/15 05:35:54;;;;;;;0.60;0.60;;;;;;;;;;4938451;28;20039;-61
2023/09/15 05:38:19;;;;;;;0.50;0.50;;;;;;;;;;4940718;28;20509;-61
2023/09/15 05:40:45;;;;;;;0.50;0.50;;;;;;;;;;4939440;28;20027;-62
2023/09/15 05:43:11;;;;;;;0.57;0.57;;;;;;;;;;4939280;28;20031;-62
2023/09/15 05:45:37;;;;;;;0.50;0.50;;;;;;;;;;4939896;28;20027;-61
2023/09/15 05:48:02;;;;;;;0.50;0.50;;;;;;;;;;4938990;28;20049;-63
2023/09/15 05:50:27;;;;;;;0.50;0.50;;;;;;;;;;4940592;28;20031;-61
2023/09/15 05:52:53;;;;;;;0.50;0.50;;;;;;;;;;4940317;28;20054;-62
2023/09/15 05:55:18;;;;;;;0.50;0.50;;;;;;;;;;4936389;29;20146;-64
2023/09/15 05:57:43;;;;;;;0.50;0.50;;;;;;;;;;4937936;28;20047;-60
2023/09/15 06:00:09;;;;;;;0.50;0.50;;;;;;;;;;4938733;28;20051;-63
2023/09/15 06:02:38;;;;;;;0.50;0.50;;;;;;;;;;4941426;28;20142;-61
2023/09/15 06:05:03;;;;;;;0.50;0.50;;;;;;;;;;4955772;28;20816;-61
2023/09/15 06:07:29;;;;;;;0.50;0.50;;;;;;;;;;4940341;28;20040;-60
2023/09/15 06:09:54;;;;;;;0.47;0.47;;;;;;;;;;4940884;28;20046;-64
2023/09/15 06:12:19;;;;;;;0.40;0.40;;;;;;;;;;4936653;28;20028;-61
2023/09/15 06:14:45;;;;;;;0.40;0.40;;;;;;;;;;4939653;28;20395;-61
2023/09/15 06:17:12;;;;;;;0.50;0.50;;;;;;;;;;4938173;28;20040;-65
2023/09/15 06:19:37;;;;;;;0.50;0.50;;;;;;;;;;4939360;28;20035;-62
2023/09/15 06:22:03;;;;;;;0.40;0.40;;;;;;;;;;4939013;28;20037;-62
2023/09/15 06:24:28;;;;;;;0.40;0.40;;;;;;;;;;4939933;28;20023;-63
2023/09/15 06:26:54;;;;;;;0.40;0.40;;;;;;;;;;4956533;28;20425;-61
2023/09/15 06:29:20;;;;;;;0.40;0.40;;;;;;;;;;4939151;28;20035;-61
2023/09/15 06:31:46;;;;;;;0.40;0.40;;;;;;;;;;4942561;28;20370;-63
2023/09/15 06:34:11;;;;;;;0.40;0.40;;;;;;;;;;4939517;28;20044;-62
2023/09/15 06:36:38;;;;;;;0.40;0.40;;;;;;;;;;4937178;29;20118;-63
2023/09/15 06:39:06;;;;;;;0.40;0.40;;;;;;;;;;4938692;29;20062;-62
2023/09/15 06:41:32;;;;;;;0.40;0.40;;;;;;;;;;4940007;29;20063;-62
2023/09/15 06:43:57;;;;;;;0.30;0.30;;;;;;;;;;4942948;28;20469;-63
2023/09/15 06:46:23;;;;;;;0.40;0.40;;;;;;;;;;4952897;28;20134;-63
2023/09/15 06:48:48;;;;;;;0.30;0.30;;;;;;;;;;4936509;29;20868;-61
2023/09/15 06:51:13;;;;;;;0.30;0.30;;;;;;;;;;4939353;28;20024;-61
2023/09/15 06:53:38;;;;;;;0.35;0.35;;;;;;;;;;4941167;28;20054;-61
2023/09/15 06:56:04;;;;;;;0.30;0.30;;;;;;;;;;4940056;29;20031;-61
2023/09/15 06:58:29;;;;;;;0.32;0.32;;;;;;;;;;4941593;28;20544;-63
2023/09/15 07:00:55;;;;;;;0.30;0.30;;;;;;;;;;4938734;29;20039;-63
2023/09/15 07:03:20;;;;;;;0.30;0.30;;;;;;;;;;4941012;29;20082;-61
2023/09/15 07:05:46;;;;;;;0.30;0.30;;;;;;;;;;4939899;29;20031;-61
2023/09/15 07:08:11;;;;;;;0.30;0.30;;;;;;;;;;4952564;28;20040;-62
2023/09/15 07:10:36;;;;;;;0.30;0.30;;;;;;;;;;4953485;28;20752;-63
2023/09/15 07:13:02;;;;;;;0.30;0.30;;;;;;;;;;4938904;29;20030;-61
2023/09/15 07:15:30;;;;;;;0.30;0.30;;;;;;;;;;4936836;29;20446;-61
2023/09/15 07:17:55;;;;;;;0.30;0.30;;;;;;;;;;4942049;29;20043;-62
2023/09/15 07:20:20;;;;;;;0.30;0.30;;;;;;;;;;4954325;28;20382;-62
2023/09/15 07:22:47;;;;;;;0.30;0.30;;;;;;;;;;4937017;28;20156;-60
2023/09/15 07:25:12;;;;;;;0.30;0.30;;;;;;;;;;4939608;29;20040;-61
2023/09/15 07:27:37;;;;;;;0.30;0.30;;;;;;;;;;4942835;28;20518;-60
2023/09/15 07:30:03;;;;;;;0.30;0.30;;;;;;;;;;4936962;29;20036;-60
2023/09/15 07:32:28;;;;;;;0.30;0.30;;;;;;;;;;4942016;29;20114;-62
2023/09/15 07:34:54;;;;;;;0.30;0.30;;;;;;;;;;4941854;29;20058;-61
2023/09/15 07:37:19;;;;;;;0.30;0.30;;;;;;;;;;4940190;28;20775;-64
2023/09/15 07:39:45;;;;;;;0.30;0.30;;;;;;;;;;4938066;28;20063;-61
2023/09/15 07:42:10;;;;;;;0.30;0.30;;;;;;;;;;4936667;29;20044;-63
2023/09/15 07:44:36;;;;;;;0.30;0.30;;;;;;;;;;4938801;28;20051;-60
2023/09/15 07:47:04;;;;;;;0.20;0.20;;;;;;;;;;4939076;29;20050;-59
2023/09/15 07:49:29;;;;;;;0.20;0.20;;;;;;;;;;4938215;29;20114;-61
2023/09/15 07:51:54;;;;;;;0.20;0.20;;;;;;;;;;4939252;28;20063;-60
2023/09/15 07:54:20;;;;;;;0.20;0.20;;;;;;;;;;4936725;29;20074;-60
2023/09/15 07:56:45;;;;;;;0.20;0.20;;;;;;;;;;4941564;29;20063;-62
2023/09/15 07:59:10;;;;;;;0.20;0.20;;;;;;;;;;4968741;28;20062;-60
2023/09/15 08:01:36;;;;;;;0.22;0.22;;;;;;;;;;4937441;29;20121;-60
2023/09/15 08:04:02;;;;;;;0.20;0.20;;;;;;;;;;4939178;29;20118;-61
2023/09/15 08:06:28;;;;;;;0.20;0.20;;;;;;;;;;4941961;28;20118;-62
2023/09/15 08:08:53;;;;;;;0.20;0.20;;;;;;;;;;4937004;28;20043;-60
2023/09/15 08:11:19;;;;;;;0.20;0.20;;;;;;;;;;4935757;29;20062;-59
2023/09/15 08:13:44;;;;;;;0.20;0.20;;;;;;;;;;4950417;28;20050;-60
2023/09/15 08:16:09;;;;;;;0.20;0.20;;;;;;;;;;4938624;28;20466;-60
2023/09/15 08:18:35;;;;;;;0.20;0.20;;;;;;;;;;4938297;29;20035;-60
2023/09/15 08:21:00;;;;;;;0.20;0.20;;;;;;;;;;4935921;28;20158;-60
2023/09/15 08:23:25;;;;;;;0.20;0.20;;;;;;;;;;4935584;28;20035;-60
2023/09/15 08:25:51;;;;;;;0.20;0.20;;;;;;;;;;4938729;29;20453;-60
2023/09/15 08:28:16;;;;;;;0.20;0.20;;;;;;;;;;4957472;28;20767;-60
2023/09/15 08:30:41;;;;;;;0.20;0.20;;;;;;;;;;4941351;28;20496;-61
2023/09/15 08:33:06;;;;;;;0.20;0.20;;;;;;;;;;4939994;28;20486;-59
2023/09/15 08:35:33;;;;;;;0.20;0.20;;;;;;;;;;4941038;28;20496;-61
2023/09/15 08:37:58;;;;;;;0.20;0.20;;;;;;;;;;4940977;29;20043;-61
2023/09/15 08:40:24;;;;;;;0.20;0.20;;;;;;;;;;4943142;29;20023;-61
2023/09/15 08:42:49;;;;;;;0.20;0.20;;;;;;;;;;4936503;29;20786;-59
2023/09/15 08:45:14;;;;;;;0.20;0.20;;;;;;;;;;4940663;28;20024;-60
2023/09/15 08:47:42;;;;;;;0.10;0.10;;;;;;;;;;4941949;29;20518;-62
2023/09/15 08:50:08;;;;;;;0.20;0.20;;;;;;;;;;4951702;28;20058;-62
2023/09/15 08:52:35;;;;;;;0.20;0.20;;;;;;;;;;4950306;28;20027;-62
2023/09/15 08:55:01;;;;;;;0.10;0.10;;;;;;;;;;4938209;29;20135;-61
2023/09/15 08:57:28;;;;;;;0.20;0.20;;;;;;;;;;4936403;28;20082;-60
2023/09/15 08:59:54;;;;;;;0.20;0.20;;;;;;;;;;4951165;28;20043;-62
2023/09/15 09:02:20;;;;;;;0.20;0.20;;;;;;;;;;4936644;29;20046;-60
2023/09/15 09:04:45;;;;;;;0.10;0.10;;;;;;;;;;4938069;29;20043;-60
2023/09/15 09:07:11;;;;;;;0.20;0.20;;;;;;;;;;4935937;28;20474;-61
2023/09/15 09:09:38;;;;;;;0.20;0.20;;;;;;;;;;4936888;28;20036;-61
2023/09/15 09:12:03;;;;;;;0.10;0.10;;;;;;;;;;4940560;28;20481;-59
2023/09/15 09:14:29;;;;;;;0.10;0.10;;;;;;;;;;4936103;29;20035;-60
2023/09/15 09:16:54;;;;;;;0.10;0.10;;;;;;;;;;4936595;28;20378;-62
2023/09/15 09:19:20;;;;;;;0.10;0.10;;;;;;;;;;4938280;28;20540;-60
2023/09/15 09:21:46;;;;;;;0.10;0.10;;;;;;;;;;4966360;28;20039;-61
2023/09/15 09:24:11;;;;;;;0.10;0.10;;;;;;;;;;4933393;29;20020;-60
2023/09/15 09:26:37;;;;;;;0.10;0.10;;;;;;;;;;4935174;29;20089;-61
2023/09/15 09:29:03;;;;;;;0.10;0.10;;;;;;;;;;4933112;28;20043;-61
2023/09/15 09:31:29;;;;;;;0.10;0.10;;;;;;;;;;4930880;29;20031;-63
2023/09/15 09:33:55;;;;;;;0.10;0.10;;;;;;;;;;4938493;28;20040;-62
2023/09/15 09:36:21;;;;;;;0.10;0.10;;;;;;;;;;4967887;28;20039;-62
2023/09/15 09:38:46;;;;;;;0.10;0.10;;;;;;;;;;4943091;29;20097;-59
2023/09/15 09:41:12;;;;;;;0.10;0.10;;;;;;;;;;4940687;28;20071;-59
2023/09/15 09:43:38;;;;;;;0.10;0.10;;;;;;;;;;4936587;29;20028;-60
2023/09/15 09:46:04;;;;;;;0.10;0.10;;;;;;;;;;4939014;28;20040;-59
2023/09/15 09:48:32;;;;;;;0.10;0.10;;;;;;;;;;4944868;28;20047;-60
2023/09/15 09:50:57;;;;;;;0.10;0.10;;;;;;;;;;4942807;28;20031;-60
2023/09/15 09:53:29;;;;;;;0.10;0.10;;;;;;;;;;4955141;28;20464;-61
2023/09/15 09:55:58;;;;;;;0.10;0.10;;;;;;;;;;4938158;28;20059;-61
2023/09/15 09:58:24;;;;;;;0.10;0.10;;;;;;;;;;4955346;28;20043;-60
2023/09/15 10:00:50;;;;;;;0.10;0.10;;;;;;;;;;4942874;29;20042;-59
2023/09/15 10:03:16;;;;;;;0.10;0.10;;;;;;;;;;4940093;28;20142;-61
2023/09/15 10:05:41;;;;;;;0.10;0.10;;;;;;;;;;4941481;29;20856;-62
2023/09/15 10:08:07;;;;;;;0.10;0.10;;;;;;;;;;4935602;28;20568;-62
2023/09/15 10:10:32;;;;;;;0.10;0.10;;;;;;;;;;4939844;29;20050;-61
2023/09/15 10:12:59;;;;;;;0.10;0.10;;;;;;;;;;4972002;28;20451;-63
2023/09/15 10:15:24;;;;;;;0.00;0.00;;;;;;;;;;4941987;28;20106;-60
2023/09/15 10:17:50;;;;;;;0.10;0.10;;;;;;;;;;4952892;28;20126;-61
2023/09/15 10:20:15;;;;;;;0.10;0.10;;;;;;;;;;4938163;28;20485;-60
2023/09/15 10:22:41;;;;;;;0.00;0.00;;;;;;;;;;4934690;29;20075;-61
2023/09/15 10:25:07;;;;;;;0.10;0.10;;;;;;;;;;4968695;28;20450;-60
2023/09/15 10:27:33;;;;;;;0.05;0.05;;;;;;;;;;4939138;29;20635;-62
2023/09/15 10:30:02;;;;;;;0.00;0.00;;;;;;;;;;4937827;29;20040;-60
2023/09/15 10:32:34;;;;;;;0.00;0.00;;;;;;;;;;4939234;28;20623;-61
2023/09/15 10:34:59;;;;;;;0.00;0.00;;;;;;;;;;4938688;29;20122;-61
2023/09/15 10:37:25;;;;;;;0.00;0.00;;;;;;;;;;4943252;29;20426;-62
2023/09/15 10:39:57;;;;;;;0.00;0.00;;;;;;;;;;4943315;29;20110;-61
2023/09/15 10:42:22;;;;;;;0.00;0.00;;;;;;;;;;4957560;28;20040;-62
2023/09/15 10:44:47;;;;;;;0.00;0.00;;;;;;;;;;4940343;29;20450;-61
2023/09/15 10:47:16;;;;;;;0.00;0.00;;;;;;;;;;4941196;28;20039;-60
2023/09/15 10:49:50;;;;;;;0.08;0.08;;;;;;;;;;4941370;28;20278;-60
2023/09/15 10:52:15;;;;;;;0.00;0.00;;;;;;;;;;4954166;28;20035;-61
2023/09/15 10:54:40;;;;;;;0.00;0.00;;;;;;;;;;4938699;29;20034;-62
2023/09/15 10:57:08;;;;;;;0.00;0.00;;;;;;;;;;4939993;28;20050;-60
2023/09/15 10:59:35;;;;;;;0.00;0.00;;;;;;;;;;4943160;29;20039;-60
2023/09/15 11:02:01;;;;;;;0.00;0.00;;;;;;;;;;4943284;28;20031;-61
2023/09/15 11:04:27;;;;;;;0.00;0.00;;;;;;;;;;4943055;29;20516;-60
2023/09/15 11:06:53;;;;;;;0.00;0.00;;;;;;;;;;4944429;29;20074;-63
2023/09/15 11:09:20;;;;;;;0.00;0.00;;;;;;;;;;4934416;29;20062;-61
2023/09/15 11:11:49;;;;;;;0.10;0.10;;;;;;;;;;4937942;29;20490;-62
2023/09/15 11:14:18;;;;;;;0.00;0.00;;;;;;;;;;4938915;28;20027;-60
2023/09/15 11:16:45;;;;;;;0.00;0.00;;;;;;;;;;4955545;28;20055;-61
2023/09/15 11:19:11;;;;;;;0.00;0.00;;;;;;;;;;4956013;28;20032;-60
2023/09/15 11:21:36;;;;;;;0.00;0.00;;;;;;;;;;4938240;29;20071;-61
2023/09/15 11:24:02;;;;;;;0.00;0.00;;;;;;;;;;4942514;29;20098;-63
2023/09/15 11:26:29;;;;;;;0.00;0.00;;;;;;;;;;4942700;28;20063;-61
2023/09/15 11:28:54;;;;;;;0.00;0.00;;;;;;;;;;4938332;28;20138;-62
2023/09/15 11:31:20;;;;;;;0.00;0.00;;;;;;;;;;4935814;29;20397;-61
2023/09/15 11:33:46;;;;;;;0.00;0.00;;;;;;;;;;4951821;28;20507;-65
2023/09/15 11:36:13;;;;;;;0.00;0.00;;;;;;;;;;4939117;28;20114;-62
2023/09/15 11:38:38;;;;;;;0.00;0.00;;;;;;;;;;4941785;29;20035;-62
2023/09/15 11:41:04;;;;;;;;;;;;;;;;;;4941941;29;20054;-63
2023/09/15 11:43:30;;;;;;;0.00;0.00;;;;;;;;;;4937893;29;19953;-63
2023/09/15 11:45:55;;;;;;;;;;;;;;;;;;4940765;29;20070;-60
2023/09/15 11:48:21;;;;;;;0.00;0.00;;;;;;;;;;4937647;28;20669;-62
2023/09/15 11:50:46;;;;;;;;;;;;;;;;;;4943121;28;20068;-59
2023/09/15 11:53:12;;;;;;;0.00;0.00;;;;;;;;;;4940269;29;19926;-60
2023/09/15 11:55:37;;;;;;;0.00;0.00;;;;;;;;;;4941217;28;20039;-61
2023/09/15 11:58:03;;;;;;;0.00;0.00;;;;;;;;;;4939205;28;20520;-62
2023/09/15 12:00:32;;;;;;;;;;;;;;;;;;4957109;28;20771;-62
2023/09/15 12:02:58;;;;;;;0.00;0.00;;;;;;;;;;4972130;28;20365;-61
2023/09/15 12:05:23;;;;;;;;;;;;;;;;;;4943334;29;20034;-64
2023/09/15 12:07:49;;;;;;;0.00;0.00;;;;;;;;;;4936520;28;19925;-62
2023/09/15 12:10:15;;;;;;;0.00;0.00;;;;;;;;;;4936948;29;20122;-60
2023/09/15 12:12:40;;;;;;;;;;;;;;;;;;4950562;28;20151;-61
2023/09/15 12:15:08;;;;;;;0.00;0.00;;;;;;;;;;4936618;29;20056;-62
2023/09/15 12:17:34;;;;;;;0.00;0.00;;;;;;;;;;4935646;29;20086;-62
2023/09/15 12:20:05;;;;;;;0.00;0.00;;;;;;;;;;4939755;29;20040;-61
2023/09/15 12:22:32;;;;;;;0.00;0.00;;;;;;;;;;4947923;29;20039;-61
2023/09/15 12:24:58;;;;;;;0.00;0.00;;;;;;;;;;4954301;28;20031;-61
2023/09/15 12:27:23;;;;;;;0.00;0.00;;;;;;;;;;4941261;28;20031;-62
2023/09/15 12:29:48;;;;;;;0.00;0.00;;;;;;;;;;4937462;29;20126;-61
2023/09/15 12:32:13;;;;;;;0.00;0.00;;;;;;;;;;4939402;28;20031;-61
2023/09/15 12:34:39;;;;;;;0.00;0.00;;;;;;;;;;4940946;29;20049;-63
2023/09/15 12:37:06;;;;;;;0.00;0.00;;;;;;;;;;4939755;29;20047;-62
2023/09/15 12:39:32;;;;;;;0.00;0.00;;;;;;;;;;4941727;28;20645;-61
2023/09/15 12:42:00;;;;;;;0.00;0.00;;;;;;;;;;4938616;28;20051;-62
2023/09/15 12:44:25;;;;;;;0.00;0.00;;;;;;;;;;4952920;28;20110;-62
2023/09/15 12:46:51;;;;;;;0.00;0.00;;;;;;;;;;4933076;29;20815;-62
2023/09/15 12:49:16;;;;;;;0.00;0.00;;;;;;;;;;4937554;28;20110;-61
2023/09/15 12:51:42;;;;;;;0.00;0.00;;;;;;;;;;4934098;29;20118;-61
2023/09/15 12:54:07;;;;;;;0.00;0.00;;;;;;;;;;4936626;29;20031;-61
2023/09/15 12:56:32;;;;;;;0.00;0.00;;;;;;;;;;4936579;28;20443;-62
2023/09/15 12:58:59;;;;;;;0.00;0.00;;;;;;;;;;4940300;29;20034;-61
2023/09/15 13:01:25;;;;;;;0.00;0.00;;;;;;;;;;4934265;29;20147;-62
2023/09/15 13:03:51;;;;;;;0.00;0.00;;;;;;;;;;4937092;28;20057;-64
2023/09/15 13:06:16;;;;;;;0.00;0.00;;;;;;;;;;4935117;28;20028;-60
2023/09/15 13:08:42;;;;;;;0.00;0.00;;;;;;;;;;4942468;29;20327;-62
2023/09/15 13:11:07;;;;;;;0.00;0.00;;;;;;;;;;4940640;29;20032;-63
2023/09/15 13:13:32;;;;;;;0.00;0.00;;;;;;;;;;4944446;28;20853;-61
2023/09/15 13:15:58;;;;;;;0.00;0.00;;;;;;;;;;4937659;28;20039;-63
2023/09/15 13:18:23;;;;;;;0.00;0.00;;;;;;;;;;4935972;29;20040;-60
2023/09/15 13:20:49;;;;;;;0.00;0.00;;;;;;;;;;4934840;28;20497;-60
2023/09/15 13:23:14;;;;;;;0.00;0.00;;;;;;;;;;4940122;29;20529;-63
2023/09/15 13:25:40;;;;;;;0.00;0.00;;;;;;;;;;4955743;28;20039;-62
2023/09/15 13:28:05;;;;;;;0.00;0.00;;;;;;;;;;4940426;29;20035;-61
2023/09/15 13:30:32;;;;;;;0.00;0.00;;;;;;;;;;4941235;29;20035;-61
2023/09/15 13:32:58;;;;;;;0.00;0.00;;;;;;;;;;4958478;28;20567;-61
2023/09/15 13:35:23;;;;;;;0.00;0.00;;;;;;;;;;4944475;29;20035;-61
2023/09/15 13:37:48;;;;;;;0.00;0.00;;;;;;;;;;4943820;28;20486;-61
2023/09/15 13:40:13;;;;;;;0.00;0.00;;;;;;;;;;4943880;29;20400;-62
2023/09/15 13:42:39;;;;;;;0.00;0.00;;;;;;;;;;4944529;28;20117;-61
2023/09/15 13:45:05;;;;;;;0.00;0.00;;;;;;;;;;4941901;29;20066;-66
2023/09/15 13:47:32;;;;;;;0.00;0.00;;;;;;;;;;4944711;28;20090;-62
2023/09/15 13:49:58;;;;;;;0.00;0.00;;;;;;;;;;4940931;28;20171;-62
2023/09/15 13:52:23;;;;;;;0.00;0.00;;;;;;;;;;4939776;28;20082;-62
2023/09/15 13:54:49;;;;;;;0.00;0.00;;;;;;;;;;4940305;29;20027;-63
2023/09/15 13:57:14;;;;;;;0.00;0.00;;;;;;;;;;4936751;29;20039;-61
2023/09/15 13:59:40;;;;;;;0.00;0.00;;;;;;;;;;4954335;28;20043;-62
2023/09/15 14:02:06;;;;;;;0.00;0.00;;;;;;;;;;4939256;29;20031;-63
2023/09/15 14:04:31;;;;;;;0.00;0.00;;;;;;;;;;4947138;28;20172;-67
2023/09/15 14:06:58;;;;;;;0.00;0.00;;;;;;;;;;4936082;28;20032;-61
2023/09/15 14:09:23;;;;;;;0.00;0.00;;;;;;;;;;4941214;29;20035;-62
2023/09/15 14:11:49;;;;;;;0.00;0.00;;;;;;;;;;4944161;28;20039;-60
2023/09/15 14:14:14;;;;;;;0.00;0.00;;;;;;;;;;4940708;28;20569;-60
2023/09/15 14:16:39;;;;;;;0.00;0.00;;;;;;;;;;4939929;29;20031;-61
2023/09/15 14:19:05;;;;;;;0.00;0.00;;;;;;;;;;4938990;28;20036;-62
2023/09/15 14:21:31;;;;;;;0.00;0.00;;;;;;;;;;4941076;28;20037;-61
2023/09/15 14:23:57;;;;;;;0.00;0.00;;;;;;;;;;4936098;29;20151;-62
2023/09/15 14:26:22;;;;;;;0.00;0.00;;;;;;;;;;4940287;29;20118;-62
2023/09/15 14:28:48;;;;;;;0.00;0.00;;;;;;;;;;4938336;29;20047;-61
2023/09/15 14:31:13;;;;;;;0.00;0.00;;;;;;;;;;4956715;28;20386;-62
2023/09/15 14:33:38;;;;;;;0.00;0.00;;;;;;;;;;4955269;28;20099;-61
2023/09/15 14:36:04;;;;;;;0.00;0.00;;;;;;;;;;4937913;29;20051;-60
2023/09/15 14:38:29;;;;;;;0.00;0.00;;;;;;;;;;4939610;29;20409;-63